Time;durP1;ratioP1;P1;durP2;ratioP2;P2;SDS_P1;SDS_P2;PMS_P1;PMS_P2;Temp;Humidity;BMP_temperature;BMP_pressure;BME280_temperature;BME280_humidity;BME280_pressure;Samples;Min_cycle;Max_cycle;Signal;HPM_P1;HPM_P2
2020/12/22 00:02:59;;;;;;;11.18;9.60;;;6.90;92.60;;;;;;6244029;23;20271;-70
2020/12/22 00:05:26;;;;;;;11.10;9.20;;;7.00;92.30;;;;;;6245573;23;20150;-70
2020/12/22 00:08:12;;;;;;;11.70;9.43;;;7.00;92.20;;;;;;6244420;23;20176;-70
2020/12/22 00:10:41;;;;;;;9.82;7.82;;;6.90;92.20;;;;;;6243407;23;20608;-70
2020/12/22 00:13:38;;;;;;;12.35;9.10;;;7.00;92.20;;;;;;6243833;23;20422;-70
2020/12/22 00:16:07;;;;;;;9.68;8.00;;;6.80;92.40;;;;;;6243486;23;20169;-71
2020/12/22 00:22:20;;;;;;;7.78;7.05;;;6.90;93.00;;;;;;6244409;23;20134;-71
2020/12/22 00:25:08;;;;;;;7.10;6.40;;;6.90;93.00;;;;;;6245376;23;20161;-71
2020/12/22 00:27:46;;;;;;;7.00;5.40;;;6.90;93.10;;;;;;6245732;23;20577;-70
2020/12/22 00:30:15;;;;;;;6.28;5.13;;;7.00;93.20;;;;;;6242799;23;20154;-71
2020/12/22 00:36:08;;;;;;;6.85;5.65;;;7.00;93.60;;;;;;6246500;23;20153;-71
2020/12/22 00:38:52;;;;;;;5.10;4.57;;;7.00;93.40;;;;;;6248289;23;20153;-70
2020/12/22 00:41:21;;;;;;;8.23;4.90;;;7.10;93.60;;;;;;6246770;23;20198;-71
2020/12/22 00:43:50;;;;;;;6.30;4.72;;;7.10;93.80;;;;;;6247125;23;20200;-71
2020/12/22 00:49:43;;;;;;;7.22;5.25;;;7.00;94.30;;;;;;6247112;23;20561;-71
2020/12/22 00:52:51;;;;;;;5.50;3.65;;;7.00;94.50;;;;;;6247301;23;20438;-71
2020/12/22 00:55:19;;;;;;;5.45;3.97;;;7.00;94.60;;;;;;6246902;23;20223;-71
2020/12/22 00:57:52;;;;;;;5.50;4.18;;;7.00;94.60;;;;;;6246958;23;20168;-71
2020/12/22 01:00:21;;;;;;;5.30;3.95;;;7.00;94.70;;;;;;6246327;23;20430;-71
2020/12/22 01:09:36;;;;;;;4.30;3.35;;;7.20;95.20;;;;;;6246794;23;20165;-71
2020/12/22 01:12:45;;;;;;;5.13;3.00;;;7.30;95.40;;;;;;6242716;23;20224;-70
2020/12/22 01:22:26;;;;;;;4.55;2.83;;;7.30;96.20;;;;;;6247298;23;20168;-71
2020/12/22 01:24:54;;;;;;;4.00;3.30;;;7.40;96.30;;;;;;6247365;23;20219;-71
2020/12/22 01:27:43;;;;;;;4.60;3.00;;;7.40;96.40;;;;;;6247364;23;20150;-70
2020/12/22 01:33:34;;;;;;;4.22;3.22;;;7.60;96.40;;;;;;6246692;23;20577;-71
2020/12/22 01:39:27;;;;;;;4.13;2.95;;;7.70;96.30;;;;;;6246599;23;20157;-70
2020/12/22 01:42:26;;;;;;;3.20;2.70;;;7.70;96.00;;;;;;6247466;23;20427;-71
2020/12/22 01:48:14;;;;;;;2.42;1.67;;;7.70;96.80;;;;;;6247017;23;20176;-71
2020/12/22 01:54:06;;;;;;;1.95;1.58;;;7.80;97.70;;;;;;6246312;22;20212;-71
2020/12/22 01:56:38;;;;;;;2.50;1.90;;;7.80;97.70;;;;;;6246663;23;20166;-71
2020/12/22 02:02:20;;;;;;;3.10;1.70;;;7.70;98.10;;;;;;6246904;23;20241;-71
2020/12/22 02:04:49;;;;;;;3.50;1.95;;;7.80;98.30;;;;;;6246296;23;20547;-71
2020/12/22 02:07:17;;;;;;;2.95;1.58;;;7.80;98.40;;;;;;6246983;23;20146;-70
2020/12/22 02:09:49;;;;;;;2.85;1.30;;;7.70;98.80;;;;;;6246336;23;20166;-70
2020/12/22 02:15:39;;;;;;;2.13;1.20;;;7.70;99.50;;;;;;6246664;23;20173;-70
2020/12/22 02:25:04;;;;;;;1.58;0.80;;;8.00;99.90;;;;;;6246587;23;20204;-70
2020/12/22 02:27:36;;;;;;;2.95;1.10;;;8.10;99.90;;;;;;6245631;23;20601;-70
2020/12/22 02:30:13;;;;;;;1.90;0.88;;;8.20;99.90;;;;;;6246931;23;20146;-71
2020/12/22 02:36:11;;;;;;;2.30;1.10;;;8.40;99.90;;;;;;6245822;23;20506;-70
2020/12/22 02:38:40;;;;;;;2.28;1.10;;;8.50;99.90;;;;;;6246876;23;20467;-71
2020/12/22 02:41:09;;;;;;;2.17;1.20;;;8.50;99.90;;;;;;6246872;23;20146;-71
2020/12/22 02:43:36;;;;;;;2.25;1.40;;;8.50;99.90;;;;;;6245730;23;20186;-71
2020/12/22 02:46:06;;;;;;;2.55;1.35;;;8.50;99.90;;;;;;6246156;23;20157;-71
2020/12/22 02:48:35;;;;;;;1.70;1.13;;;8.50;99.70;;;;;;6246732;23;20157;-71
2020/12/22 02:51:24;;;;;;;1.95;1.30;;;8.50;99.20;;;;;;6246278;23;20211;-71
2020/12/22 02:54:19;;;;;;;2.00;1.20;;;8.50;98.80;;;;;;6246763;23;20181;-71
2020/12/22 02:56:46;;;;;;;1.90;1.20;;;8.40;98.80;;;;;;6246655;23;20142;-71
2020/12/22 02:59:13;;;;;;;2.90;1.35;;;8.40;98.70;;;;;;6246183;23;20224;-71
2020/12/22 03:01:40;;;;;;;1.98;1.10;;;8.40;98.40;;;;;;6245682;23;20168;-71
2020/12/22 03:04:10;;;;;;;1.80;0.93;;;8.50;98.10;;;;;;6245288;23;20249;-70
2020/12/22 03:06:37;;;;;;;3.42;1.10;;;8.50;98.00;;;;;;6245842;23;20162;-71
2020/12/22 03:09:05;;;;;;;2.38;1.10;;;8.40;97.80;;;;;;6245873;23;20503;-71
2020/12/22 03:11:33;;;;;;;1.90;1.15;;;8.40;97.50;;;;;;6246748;23;20173;-71
2020/12/22 03:14:02;;;;;;;1.65;1.05;;;8.40;97.70;;;;;;6246675;23;20513;-71
2020/12/22 03:16:29;;;;;;;1.73;0.98;;;8.40;97.40;;;;;;6245443;23;20537;-71
2020/12/22 03:22:19;;;;;;;1.60;0.90;;;8.30;97.60;;;;;;6245528;23;20148;-70
2020/12/22 03:24:49;;;;;;;1.70;1.00;;;8.30;97.60;;;;;;6245716;23;20185;-70
2020/12/22 03:27:17;;;;;;;1.83;1.30;;;8.30;97.70;;;;;;6245708;23;20157;-71
2020/12/22 03:33:06;;;;;;;1.50;0.88;;;8.30;97.70;;;;;;6246054;23;20140;-71
2020/12/22 03:35:35;;;;;;;2.00;1.00;;;8.30;97.80;;;;;;6245264;23;20166;-71
2020/12/22 03:41:33;;;;;;;1.70;0.88;;;8.40;98.40;;;;;;6245915;23;20141;-71
2020/12/22 03:47:25;;;;;;;2.35;0.70;;;8.40;98.70;;;;;;6246084;23;20144;-70
2020/12/22 03:53:16;;;;;;;1.30;0.65;;;8.40;98.80;;;;;;6245484;23;20204;-70
2020/12/22 03:55:43;;;;;;;1.40;0.80;;;8.50;99.30;;;;;;6246120;23;20212;-70
2020/12/22 04:01:24;;;;;;;1.70;0.90;;;8.60;99.90;;;;;;6245442;23;20627;-71
2020/12/22 04:03:57;;;;;;;2.20;1.80;;;8.60;99.80;;;;;;6246077;23;20689;-70
2020/12/22 04:06:27;;;;;;;1.60;1.10;;;8.60;99.90;;;;;;6241435;23;20150;-71
2020/12/22 04:12:17;;;;;;;2.45;1.40;;;8.60;99.30;;;;;;6245609;23;20149;-71
2020/12/22 04:21:28;;;;;;;1.80;1.20;;;8.60;99.90;;;;;;6246103;23;20137;-71
2020/12/22 04:23:55;;;;;;;1.50;0.70;;;8.60;99.90;;;;;;6245839;23;20189;-71
2020/12/22 04:26:24;;;;;;;1.60;0.73;;;8.70;99.90;;;;;;6245573;23;20177;-71
2020/12/22 04:28:52;;;;;;;1.83;0.65;;;8.80;99.90;;;;;;6245912;23;20157;-71
2020/12/22 04:31:21;;;;;;;1.40;0.70;;;9.00;99.90;;;;;;6245876;23;20146;-71
2020/12/22 04:33:52;;;;;;;1.30;0.60;;;9.10;99.90;;;;;;6245927;23;20150;-71
2020/12/22 04:36:21;;;;;;;1.20;0.52;;;9.30;99.90;;;;;;6245951;23;20177;-71
2020/12/22 04:42:13;;;;;;;1.50;0.68;;;9.50;99.90;;;;;;6245370;23;20207;-71
2020/12/22 04:48:04;;;;;;;1.20;0.60;;;9.60;99.90;;;;;;6246000;23;20543;-71
2020/12/22 04:50:36;;;;;;;1.58;0.80;;;9.70;99.90;;;;;;6245263;23;20173;-71
2020/12/22 04:53:10;;;;;;;1.30;0.60;;;9.80;99.90;;;;;;6245899;23;20166;-71
2020/12/22 04:55:38;;;;;;;1.75;1.02;;;9.80;99.90;;;;;;6246147;23;20149;-71
2020/12/22 04:58:06;;;;;;;1.33;0.57;;;9.90;99.90;;;;;;6245206;23;20189;-71
2020/12/22 05:00:33;;;;;;;1.25;0.60;;;9.90;99.90;;;;;;6245443;23;20162;-70
2020/12/22 05:06:22;;;;;;;2.03;0.70;;;10.00;99.10;;;;;;6245460;23;20176;-71
2020/12/22 05:08:57;;;;;;;1.60;0.65;;;10.10;98.90;;;;;;6245367;23;20525;-71
2020/12/22 05:11:28;;;;;;;1.40;0.75;;;10.20;98.40;;;;;;6246338;23;20148;-71
2020/12/22 05:23:40;;;;;;;1.67;0.70;;;10.40;96.80;;;;;;6246600;23;20660;-71
2020/12/22 05:26:25;;;;;;;1.50;0.80;;;10.40;96.60;;;;;;6247848;23;20150;-71
2020/12/22 05:32:17;;;;;;;1.30;0.60;;;10.40;96.30;;;;;;6246929;23;20137;-70
2020/12/22 05:37:41;;;;;;;1.50;0.70;;;10.30;96.20;;;;;;6247519;23;20149;-70
2020/12/22 05:40:11;;;;;;;1.40;0.70;;;10.30;96.10;;;;;;6247490;23;20199;-70
2020/12/22 05:45:35;;;;;;;1.30;0.70;;;10.30;96.10;;;;;;6247509;23;20169;-70
2020/12/22 05:51:27;;;;;;;1.50;0.65;;;10.30;95.90;;;;;;6247387;23;20133;-71
2020/12/22 05:57:35;;;;;;;1.75;0.70;;;10.30;95.60;;;;;;6246852;23;20145;-70
2020/12/22 06:03:43;;;;;;;1.77;0.90;;;10.30;95.40;;;;;;6246482;23;20243;-71
2020/12/22 06:06:39;;;;;;;1.75;0.90;;;10.30;95.50;;;;;;6223239;23;20589;-71
2020/12/22 06:12:15;;;;;;;2.75;1.20;;;10.40;95.30;;;;;;6246032;23;20188;-70
2020/12/22 06:18:21;;;;;;;2.03;1.25;;;10.40;95.20;;;;;;6245705;23;20177;-71
2020/12/22 06:30:47;;;;;;;1.85;1.10;;;10.40;94.90;;;;;;6216051;23;20158;-71
2020/12/22 06:33:18;;;;;;;1.50;0.80;;;10.40;94.80;;;;;;6215943;23;20163;-71
2020/12/22 06:39:16;;;;;;;1.40;0.77;;;10.50;94.20;;;;;;6216093;23;20226;-71
2020/12/22 06:41:44;;;;;;;1.30;0.70;;;10.50;94.30;;;;;;6210742;23;20158;-71
2020/12/22 06:48:03;;;;;;;1.52;0.95;;;10.50;94.10;;;;;;6165462;23;20173;-70
2020/12/22 06:53:41;;;;;;;1.75;0.85;;;10.60;93.70;;;;;;6215336;23;20170;-71
2020/12/22 06:56:08;;;;;;;1.70;0.98;;;10.70;93.60;;;;;;6210934;23;20164;-71
2020/12/22 06:58:40;;;;;;;1.50;0.70;;;10.80;93.50;;;;;;6216200;23;20169;-71
2020/12/22 07:01:36;;;;;;;1.50;0.73;;;10.80;93.40;;;;;;6215687;23;20147;-71
2020/12/22 07:07:55;;;;;;;1.30;0.60;;;10.90;93.10;;;;;;6175137;23;20181;-71
2020/12/22 07:10:29;;;;;;;3.25;1.02;;;10.90;92.80;;;;;;6216330;23;20161;-70
2020/12/22 07:16:24;;;;;;;1.50;0.80;;;11.00;92.50;;;;;;6215589;23;20188;-71
2020/12/22 07:26:03;;;;;;;1.30;0.60;;;11.30;91.70;;;;;;6244560;23;20145;-70
2020/12/22 07:28:31;;;;;;;4.22;0.70;;;11.30;91.40;;;;;;6242945;23;20166;-70
2020/12/22 07:30:58;;;;;;;1.30;0.70;;;11.40;91.40;;;;;;6243600;23;20170;-70
2020/12/22 07:33:28;;;;;;;2.13;1.23;;;11.50;91.00;;;;;;6244270;23;20580;-70
2020/12/22 07:35:56;;;;;;;2.10;0.93;;;11.50;90.90;;;;;;6246213;23;20146;-70
2020/12/22 07:41:50;;;;;;;1.65;0.85;;;11.60;90.50;;;;;;6246014;23;20221;-70
2020/12/22 07:44:21;;;;;;;2.75;0.90;;;11.60;90.50;;;;;;6241624;23;20173;-70
2020/12/22 07:46:53;;;;;;;1.75;1.20;;;11.70;90.40;;;;;;6245502;23;20197;-70
2020/12/22 07:49:32;;;;;;;2.03;1.00;;;11.80;90.30;;;;;;6244869;23;20233;-70
2020/12/22 07:51:59;;;;;;;1.58;0.88;;;11.80;90.30;;;;;;6239480;23;20170;-70
2020/12/22 07:54:26;;;;;;;1.60;0.70;;;11.90;90.10;;;;;;6235315;23;20169;-71
2020/12/22 07:57:00;;;;;;;2.15;1.17;;;11.90;90.00;;;;;;6235049;23;20197;-72
2020/12/22 07:59:28;;;;;;;1.30;0.68;;;12.00;89.80;;;;;;6244142;23;20168;-70
2020/12/22 08:02:36;;;;;;;1.80;0.90;;;12.00;89.40;;;;;;6245262;23;20181;-70
2020/12/22 08:05:13;;;;;;;2.30;0.85;;;12.00;88.90;;;;;;6243097;23;20269;-70
2020/12/22 08:07:42;;;;;;;3.13;1.38;;;12.10;89.60;;;;;;6239562;23;20476;-71
2020/12/22 08:10:15;;;;;;;1.70;0.88;;;12.20;88.40;;;;;;6244868;23;20197;-70
2020/12/22 08:12:56;;;;;;;1.45;0.65;;;12.30;87.90;;;;;;6240658;23;20319;-70
2020/12/22 08:15:24;;;;;;;1.83;0.60;;;12.50;86.50;;;;;;6238490;23;20170;-71
2020/12/22 08:17:56;;;;;;;1.92;1.30;;;12.70;85.80;;;;;;6238181;23;20166;-70
2020/12/22 08:20:24;;;;;;;1.57;0.80;;;12.80;86.20;;;;;;6231663;23;20197;-72
2020/12/22 08:26:28;;;;;;;2.90;0.80;;;13.10;84.30;;;;;;6191944;22;20191;-74
2020/12/22 08:29:03;;;;;;;3.30;1.90;;;13.20;83.70;;;;;;6169651;23;20913;-77
2020/12/22 08:31:35;;;;;;;3.00;1.07;;;13.30;82.60;;;;;;6169388;23;21317;-69
2020/12/22 08:34:07;;;;;;;1.40;0.70;;;13.30;82.30;;;;;;6172117;23;20402;-69
2020/12/22 08:36:41;;;;;;;1.30;0.80;;;13.30;82.40;;;;;;6166218;23;20567;-69
2020/12/22 08:39:19;;;;;;;1.30;0.60;;;13.40;82.10;;;;;;6172059;23;20394;-68
2020/12/22 08:41:58;;;;;;;1.63;0.80;;;13.40;81.80;;;;;;6171452;23;20394;-69
2020/12/22 08:44:28;;;;;;;8.33;1.00;;;13.50;80.90;;;;;;6166235;23;20449;-70
2020/12/22 08:46:55;;;;;;;3.07;1.80;;;13.50;80.10;;;;;;6175577;23;20425;-69
2020/12/22 08:49:32;;;;;;;1.97;1.00;;;13.60;80.80;;;;;;6175844;23;20453;-70
2020/12/22 08:52:09;;;;;;;1.50;0.70;;;13.60;80.20;;;;;;6180676;23;20393;-68
2020/12/22 08:54:36;;;;;;;2.40;0.80;;;13.80;79.00;;;;;;6179291;23;20398;-69
2020/12/22 08:57:11;;;;;;;1.77;0.90;;;14.00;79.40;;;;;;6181481;23;20407;-68
2020/12/22 08:59:42;;;;;;;1.57;0.73;;;14.10;78.60;;;;;;6173872;23;20456;-68
2020/12/22 09:02:24;;;;;;;2.60;1.00;;;14.30;77.50;;;;;;6179081;23;20394;-70
2020/12/22 09:04:55;;;;;;;2.70;1.40;;;14.40;77.10;;;;;;6174749;23;20441;-69
2020/12/22 09:07:28;;;;;;;1.60;0.70;;;14.40;76.60;;;;;;6169818;23;20465;-69
2020/12/22 09:13:24;;;;;;;2.27;1.10;;;14.30;75.40;;;;;;6186881;23;20409;-69
2020/12/22 09:16:00;;;;;;;1.60;0.60;;;14.30;75.70;;;;;;6186166;23;20945;-68
2020/12/22 09:18:30;;;;;;;1.77;0.70;;;14.60;74.40;;;;;;6180521;23;20398;-69
2020/12/22 09:21:11;;;;;;;1.40;0.60;;;14.80;73.20;;;;;;6179842;23;20394;-69
2020/12/22 09:24:28;;;;;;;1.57;0.60;;;14.90;71.80;;;;;;6179958;23;20430;-69
2020/12/22 09:26:58;;;;;;;1.83;0.70;;;14.90;72.50;;;;;;6167448;23;20744;-69
2020/12/22 09:29:25;;;;;;;1.50;0.60;;;14.80;72.80;;;;;;6170021;23;20397;-73
2020/12/22 09:31:55;;;;;;;1.30;0.60;;;14.80;71.30;;;;;;6177762;23;20398;-68
2020/12/22 09:34:54;;;;;;;1.80;1.00;;;14.70;71.30;;;;;;6186435;23;20431;-69
2020/12/22 09:37:28;;;;;;;2.17;0.73;;;14.70;71.30;;;;;;6179959;23;20399;-69
2020/12/22 09:39:55;;;;;;;1.30;0.60;;;14.80;71.40;;;;;;6184086;23;20466;-69
2020/12/22 09:42:24;;;;;;;1.40;0.60;;;14.80;70.40;;;;;;6180486;23;20410;-69
2020/12/22 09:45:11;;;;;;;1.73;0.70;;;14.90;69.80;;;;;;6185052;23;20441;-69
2020/12/22 09:47:38;;;;;;;1.50;0.60;;;14.90;70.60;;;;;;6179695;23;20478;-69
2020/12/22 09:50:05;;;;;;;1.30;0.60;;;14.90;69.10;;;;;;6186229;23;20417;-69
2020/12/22 09:52:43;;;;;;;1.43;0.60;;;14.80;69.60;;;;;;6181908;23;20513;-71
2020/12/22 09:55:22;;;;;;;1.43;0.60;;;14.80;70.00;;;;;;6184097;23;20457;-69
2020/12/22 09:57:59;;;;;;;1.43;0.70;;;14.70;69.70;;;;;;6171160;23;20878;-69
2020/12/22 10:04:40;;;;;;;1.60;0.67;;;14.60;69.80;;;;;;6186873;23;20468;-69
2020/12/22 10:07:10;;;;;;;1.40;0.60;;;14.40;69.10;;;;;;6171981;23;20401;-69
2020/12/22 10:09:37;;;;;;;1.30;0.60;;;14.30;69.80;;;;;;6166638;23;20407;-74
2020/12/22 10:12:05;;;;;;;1.40;0.50;;;14.30;69.50;;;;;;6171080;23;20893;-69
2020/12/22 10:14:40;;;;;;;2.80;0.90;;;14.30;70.40;;;;;;6168614;23;20401;-74
2020/12/22 10:17:10;;;;;;;1.50;0.83;;;14.30;70.90;;;;;;6172000;23;20409;-69
2020/12/22 10:19:36;;;;;;;1.20;0.50;;;14.30;70.00;;;;;;6166737;23;20398;-73
2020/12/22 10:22:08;;;;;;;2.57;0.63;;;14.30;69.80;;;;;;6170688;23;20399;-69
2020/12/22 10:24:35;;;;;;;3.00;0.70;;;14.20;69.30;;;;;;6168021;23;20469;-75
2020/12/22 10:27:09;;;;;;;1.77;1.43;;;14.30;69.90;;;;;;6169785;23;20901;-69
2020/12/22 10:29:35;;;;;;;2.60;0.80;;;14.20;70.20;;;;;;6167297;23;20410;-70
2020/12/22 10:32:06;;;;;;;1.50;0.70;;;14.20;69.80;;;;;;6170253;23;20491;-69
2020/12/22 10:34:33;;;;;;;1.30;0.60;;;14.20;69.80;;;;;;6168031;23;20399;-74
2020/12/22 10:37:01;;;;;;;1.50;0.53;;;14.20;69.90;;;;;;6169270;23;20668;-69
2020/12/22 10:39:29;;;;;;;1.40;0.60;;;14.20;70.60;;;;;;6170020;23;20399;-73
2020/12/22 10:41:59;;;;;;;1.43;0.50;;;14.20;70.30;;;;;;6167559;23;21178;-69
2020/12/22 10:44:31;;;;;;;1.60;1.20;;;14.10;70.70;;;;;;6171200;23;20804;-74
2020/12/22 10:47:03;;;;;;;1.50;0.60;;;14.10;70.50;;;;;;6168852;23;20963;-68
2020/12/22 10:49:31;;;;;;;1.33;0.70;;;14.00;71.80;;;;;;6169298;23;20502;-71
2020/12/22 10:51:57;;;;;;;1.30;0.60;;;14.00;72.60;;;;;;6168092;23;20750;-70
2020/12/22 10:54:29;;;;;;;1.40;0.70;;;14.00;72.40;;;;;;6171850;23;20402;-69
2020/12/22 10:57:03;;;;;;;1.30;0.77;;;14.00;72.40;;;;;;6167778;23;20629;-69
2020/12/22 10:59:30;;;;;;;1.20;0.60;;;14.00;71.70;;;;;;6169737;23;20683;-71
2020/12/22 11:02:01;;;;;;;2.80;0.93;;;14.10;72.00;;;;;;6168384;23;20653;-69
2020/12/22 11:04:28;;;;;;;1.37;0.60;;;14.20;72.40;;;;;;6169035;23;20481;-74
2020/12/22 11:07:03;;;;;;;1.30;0.60;;;14.20;71.50;;;;;;6167120;23;20582;-70
2020/12/22 11:09:30;;;;;;;1.20;0.50;;;14.30;71.60;;;;;;6167225;23;20416;-69
2020/12/22 11:11:58;;;;;;;1.40;0.70;;;14.50;70.20;;;;;;6172514;23;20398;-69
2020/12/22 11:14:26;;;;;;;1.20;0.60;;;14.90;69.90;;;;;;6172978;23;20394;-71
2020/12/22 11:16:56;;;;;;;1.40;0.87;;;15.60;69.90;;;;;;6170449;23;20418;-69
2020/12/22 11:19:22;;;;;;;1.20;0.50;;;16.60;66.10;;;;;;6172957;23;20904;-70
2020/12/22 11:21:50;;;;;;;1.30;0.60;;;16.80;63.30;;;;;;6168875;23;21074;-69
2020/12/22 11:24:22;;;;;;;2.50;1.30;;;16.70;63.00;;;;;;6182411;23;20534;-69
2020/12/22 11:26:49;;;;;;;1.83;0.90;;;16.50;62.20;;;;;;6181146;23;20425;-69
2020/12/22 11:29:15;;;;;;;1.37;0.57;;;16.30;62.80;;;;;;6183377;23;20721;-69
2020/12/22 11:31:46;;;;;;;1.30;0.60;;;16.70;63.70;;;;;;6183765;23;20449;-70
2020/12/22 11:40:58;;;;;;;1.30;0.60;;;17.90;57.30;;;;;;6180291;23;20819;-69
2020/12/22 11:43:27;;;;;;;1.87;0.73;;;17.80;57.10;;;;;;6184582;23;20394;-69
2020/12/22 11:46:25;;;;;;;1.30;0.50;;;17.70;56.60;;;;;;6181571;23;20394;-69
2020/12/22 11:48:53;;;;;;;1.40;0.90;;;17.70;57.00;;;;;;6185579;23;20846;-69
2020/12/22 11:51:19;;;;;;;1.40;0.60;;;17.60;57.20;;;;;;6184159;23;20403;-69
2020/12/22 11:53:46;;;;;;;1.30;0.50;;;17.50;57.10;;;;;;6184096;23;20403;-69
2020/12/22 11:56:38;;;;;;;1.30;0.60;;;17.30;56.90;;;;;;6180811;23;20405;-69
2020/12/22 12:02:09;;;;;;;1.30;0.60;;;16.90;57.50;;;;;;6181794;23;20455;-69
2020/12/22 12:05:18;;;;;;;1.30;0.50;;;16.80;58.30;;;;;;6182914;23;20742;-69
2020/12/22 12:07:44;;;;;;;3.47;0.50;;;16.60;58.00;;;;;;6173218;23;20406;-70
2020/12/22 12:10:13;;;;;;;1.20;0.50;;;16.60;58.00;;;;;;6172612;23;20896;-69
2020/12/22 12:12:40;;;;;;;1.50;0.60;;;16.50;57.90;;;;;;6168541;23;20426;-74
2020/12/22 12:15:07;;;;;;;1.40;0.63;;;16.60;58.70;;;;;;6172985;23;20405;-69
2020/12/22 12:17:38;;;;;;;1.30;0.50;;;16.40;57.80;;;;;;6168223;23;20429;-75
2020/12/22 12:20:09;;;;;;;1.40;0.70;;;16.40;58.10;;;;;;6172174;23;20975;-71
2020/12/22 12:22:36;;;;;;;1.40;0.50;;;16.20;57.70;;;;;;6168046;23;20758;-73
2020/12/22 12:25:06;;;;;;;1.87;0.50;;;16.10;57.90;;;;;;6172951;23;20442;-69
2020/12/22 12:27:35;;;;;;;1.40;0.53;;;16.00;58.20;;;;;;6170304;23;20728;-75
2020/12/22 12:30:01;;;;;;;1.30;0.50;;;15.90;58.90;;;;;;6172550;23;20402;-70
2020/12/22 12:32:33;;;;;;;1.30;0.70;;;15.90;59.40;;;;;;6171111;23;20406;-75
2020/12/22 12:35:09;;;;;;;1.70;0.60;;;15.80;59.20;;;;;;6172162;23;20779;-70
2020/12/22 12:37:39;;;;;;;1.67;0.60;;;15.80;59.20;;;;;;6169347;23;20409;-72
2020/12/22 12:40:06;;;;;;;1.20;0.53;;;15.70;58.90;;;;;;6173794;23;20394;-70
2020/12/22 12:42:33;;;;;;;1.40;0.57;;;15.70;59.40;;;;;;6170176;23;20406;-74
2020/12/22 12:45:01;;;;;;;1.47;0.60;;;15.70;59.40;;;;;;6171013;23;20438;-70
2020/12/22 12:47:28;;;;;;;1.70;0.70;;;15.70;59.50;;;;;;6171171;23;20410;-75
2020/12/22 12:49:59;;;;;;;1.20;0.53;;;15.70;59.50;;;;;;6169289;23;20394;-71
2020/12/22 12:52:30;;;;;;;1.30;0.50;;;15.70;59.60;;;;;;6172576;23;20901;-73
2020/12/22 12:54:59;;;;;;;1.30;0.60;;;15.80;59.70;;;;;;6170608;23;20398;-70
2020/12/22 12:57:28;;;;;;;1.20;0.50;;;16.00;59.90;;;;;;6172995;23;20918;-75
2020/12/22 13:00:06;;;;;;;1.47;0.63;;;16.40;59.50;;;;;;6169912;23;20425;-70
2020/12/22 13:02:38;;;;;;;1.47;0.50;;;16.80;58.70;;;;;;6171076;23;20705;-76
2020/12/22 13:05:24;;;;;;;1.90;0.90;;;16.90;57.30;;;;;;6174033;23;20434;-70
2020/12/22 13:07:50;;;;;;;1.40;0.60;;;17.00;57.20;;;;;;6169149;23;20402;-71
2020/12/22 13:10:22;;;;;;;1.93;0.50;;;16.90;56.50;;;;;;6174268;23;20405;-71
2020/12/22 13:12:48;;;;;;;1.70;0.60;;;16.70;56.40;;;;;;6169981;23;20406;-71
2020/12/22 13:15:26;;;;;;;1.50;0.50;;;16.60;57.30;;;;;;6180537;23;20410;-71
2020/12/22 13:17:54;;;;;;;1.70;0.60;;;16.40;56.90;;;;;;6173458;23;20710;-71
2020/12/22 13:20:41;;;;;;;1.50;0.60;;;16.30;57.20;;;;;;6180177;23;20884;-71
2020/12/22 13:23:11;;;;;;;1.20;0.50;;;16.20;57.30;;;;;;6183614;23;20402;-71
2020/12/22 13:25:41;;;;;;;1.50;0.60;;;16.20;57.50;;;;;;6183651;23;20500;-71
2020/12/22 13:28:08;;;;;;;1.30;0.40;;;16.10;57.50;;;;;;6185845;23;20432;-71
2020/12/22 13:30:51;;;;;;;1.30;0.50;;;15.90;57.60;;;;;;6183747;23;20394;-72
2020/12/22 13:33:38;;;;;;;3.47;0.60;;;15.80;57.80;;;;;;6185373;23;20409;-72
2020/12/22 13:36:06;;;;;;;1.50;0.70;;;15.70;58.00;;;;;;6186145;23;20405;-70
2020/12/22 13:38:39;;;;;;;1.40;0.60;;;15.60;57.80;;;;;;6185325;23;20386;-71
2020/12/22 13:41:10;;;;;;;1.40;0.60;;;15.50;58.10;;;;;;6183741;23;20453;-70
2020/12/22 13:43:48;;;;;;;1.30;0.70;;;15.50;58.30;;;;;;6180387;23;20390;-76
2020/12/22 13:46:36;;;;;;;1.37;0.60;;;15.50;58.10;;;;;;6184258;23;20481;-70
2020/12/22 13:49:05;;;;;;;1.67;0.60;;;15.50;58.60;;;;;;6177386;23;20457;-71
2020/12/22 13:51:32;;;;;;;1.70;0.83;;;15.50;58.80;;;;;;6171545;23;20935;-74
2020/12/22 13:53:59;;;;;;;2.23;1.00;;;15.50;59.00;;;;;;6177596;23;20912;-70
2020/12/22 13:56:26;;;;;;;2.37;1.20;;;15.40;58.90;;;;;;6184698;23;20942;-70
2020/12/22 14:02:14;;;;;;;6.63;3.60;;;15.40;59.10;;;;;;6183642;23;20374;-70
2020/12/22 14:04:41;;;;;;;7.03;1.43;;;15.40;59.30;;;;;;6183467;23;20474;-70
2020/12/22 14:07:09;;;;;;;2.70;1.13;;;15.30;58.80;;;;;;6184517;23;20401;-70
2020/12/22 14:09:50;;;;;;;3.40;1.63;;;15.30;59.20;;;;;;6183916;23;20896;-71
2020/12/22 14:12:34;;;;;;;1.73;0.87;;;15.20;59.10;;;;;;6185058;23;20383;-70
2020/12/22 14:15:03;;;;;;;2.30;1.07;;;15.20;59.40;;;;;;6185096;23;20397;-70
2020/12/22 14:17:31;;;;;;;1.70;0.80;;;15.10;59.40;;;;;;6183348;23;20406;-70
2020/12/22 14:20:35;;;;;;;1.60;0.90;;;15.10;59.30;;;;;;6185104;23;20393;-70
2020/12/22 14:23:06;;;;;;;2.07;0.60;;;15.10;59.60;;;;;;6184689;23;20731;-71
2020/12/22 14:25:34;;;;;;;1.50;0.60;;;15.10;59.70;;;;;;6183985;23;20967;-70
2020/12/22 14:28:02;;;;;;;2.00;0.80;;;15.10;60.00;;;;;;6185329;23;20425;-70
2020/12/22 14:30:36;;;;;;;3.23;1.17;;;15.00;59.80;;;;;;6182539;23;20486;-76
2020/12/22 14:33:07;;;;;;;1.90;0.80;;;15.00;60.60;;;;;;6177050;23;20885;-70
2020/12/22 14:35:33;;;;;;;1.30;0.60;;;15.00;61.90;;;;;;6186213;23;20413;-77
2020/12/22 14:38:00;;;;;;;2.10;0.90;;;15.00;62.80;;;;;;6184278;23;20522;-71
2020/12/22 14:40:45;;;;;;;1.50;0.80;;;14.90;62.90;;;;;;6186089;23;20736;-70
2020/12/22 14:43:19;;;;;;;1.20;0.50;;;14.90;62.40;;;;;;6182609;23;20401;-71
2020/12/22 14:45:46;;;;;;;3.93;0.70;;;14.90;61.60;;;;;;6177280;23;20481;-70
2020/12/22 14:48:16;;;;;;;1.43;0.70;;;14.90;61.90;;;;;;6172358;23;20516;-71
2020/12/22 14:50:44;;;;;;;1.30;0.60;;;14.80;61.30;;;;;;6172749;23;20402;-71
2020/12/22 14:53:14;;;;;;;1.40;0.60;;;14.70;61.40;;;;;;6185168;23;20959;-70
2020/12/22 14:55:41;;;;;;;2.13;0.70;;;14.70;61.60;;;;;;6179898;23;20456;-76
2020/12/22 14:58:11;;;;;;;1.33;0.50;;;14.80;62.00;;;;;;6174476;23;20403;-71
2020/12/22 15:00:43;;;;;;;4.47;3.03;;;14.70;61.40;;;;;;6173571;23;20395;-70
2020/12/22 15:03:27;;;;;;;3.93;1.47;;;14.80;62.10;;;;;;6185325;23;20449;-70
2020/12/22 15:05:56;;;;;;;2.33;1.50;;;14.70;62.30;;;;;;6184701;23;20434;-70
2020/12/22 15:11:48;;;;;;;3.07;1.30;;;14.70;65.30;;;;;;6185035;23;20471;-70
2020/12/22 15:14:50;;;;;;;2.40;1.80;;;14.60;68.80;;;;;;6185065;23;20391;-69
2020/12/22 15:17:19;;;;;;;2.10;0.70;;;14.50;69.80;;;;;;6185583;23;20873;-70
2020/12/22 15:29:54;;;;;;;1.87;0.97;;;14.30;72.90;;;;;;6179597;23;20385;-71
2020/12/22 15:32:32;;;;;;;1.60;0.80;;;14.20;73.20;;;;;;6180900;23;20413;-70
2020/12/22 15:35:20;;;;;;;2.40;1.30;;;14.20;73.30;;;;;;6181438;23;20448;-70
2020/12/22 15:37:49;;;;;;;3.80;2.37;;;14.20;73.00;;;;;;6184426;23;20389;-71
2020/12/22 15:40:18;;;;;;;9.00;1.10;;;14.20;72.10;;;;;;6185971;23;20375;-71
2020/12/22 15:42:45;;;;;;;2.37;1.30;;;14.10;72.10;;;;;;6184137;23;20383;-70
2020/12/22 15:45:27;;;;;;;2.80;1.50;;;14.10;72.70;;;;;;6183590;23;20935;-70
2020/12/22 15:47:58;;;;;;;4.00;2.20;;;14.10;73.00;;;;;;6184641;23;20402;-71
2020/12/22 15:50:26;;;;;;;5.03;3.53;;;14.10;72.10;;;;;;6185359;23;20395;-70
2020/12/22 15:57:02;;;;;;;4.93;2.70;;;14.00;71.70;;;;;;6094752;23;20449;-71
2020/12/22 15:59:29;;;;;;;1.93;1.23;;;14.00;70.80;;;;;;6092267;23;20881;-75
2020/12/22 16:01:58;;;;;;;2.03;1.43;;;14.00;69.80;;;;;;6171829;23;20398;-72
2020/12/22 16:04:25;;;;;;;1.57;0.73;;;14.00;69.30;;;;;;6177780;23;20434;-70
2020/12/22 16:06:56;;;;;;;1.90;0.90;;;14.00;69.30;;;;;;6167565;23;20403;-71
2020/12/22 16:09:24;;;;;;;1.70;0.83;;;14.00;68.70;;;;;;6172292;23;20399;-70
2020/12/22 16:12:05;;;;;;;1.40;0.70;;;14.00;68.40;;;;;;6166814;23;20398;-70
2020/12/22 16:14:35;;;;;;;1.50;0.80;;;13.90;68.30;;;;;;6171486;23;20413;-71
2020/12/22 16:17:23;;;;;;;1.30;0.60;;;14.00;68.30;;;;;;6177877;23;20399;-71
2020/12/22 16:19:50;;;;;;;1.80;0.97;;;14.00;67.90;;;;;;6182441;23;20457;-70
2020/12/22 16:22:17;;;;;;;1.30;0.60;;;14.00;67.80;;;;;;6177778;23;20430;-70
2020/12/22 16:24:45;;;;;;;1.67;1.03;;;14.00;67.60;;;;;;6181916;23;20473;-70
2020/12/22 16:33:28;;;;;;;1.43;0.70;;;14.10;67.30;;;;;;6183664;23;20430;-70
2020/12/22 16:35:55;;;;;;;1.30;0.60;;;14.00;66.60;;;;;;6184659;23;20390;-70
2020/12/22 16:38:22;;;;;;;2.30;0.80;;;14.00;66.70;;;;;;6184936;23;20387;-70
2020/12/22 16:40:49;;;;;;;1.67;0.87;;;14.10;67.40;;;;;;6173241;23;20391;-70
2020/12/22 16:43:18;;;;;;;1.43;0.60;;;14.00;66.90;;;;;;6171635;23;20740;-70
2020/12/22 16:45:49;;;;;;;1.90;0.70;;;14.10;67.30;;;;;;6163994;23;20442;-70
2020/12/22 16:48:18;;;;;;;1.40;0.63;;;14.10;67.60;;;;;;6170411;23;20453;-72
2020/12/22 16:50:50;;;;;;;1.60;0.80;;;14.10;67.80;;;;;;6163035;23;20758;-70
2020/12/22 16:53:17;;;;;;;1.70;0.60;;;14.10;68.20;;;;;;6171670;23;20440;-70
2020/12/22 16:55:52;;;;;;;1.50;0.80;;;14.10;68.40;;;;;;6163958;23;20481;-71